createdAt,value
2023-01-18T00:00:06.000Z,-0.8
2023-01-18T00:01:22.000Z,-0.7
2023-01-18T00:02:39.000Z,-0.8
2023-01-18T00:03:55.000Z,-0.8
2023-01-18T00:05:11.000Z,-0.7
2023-01-18T00:06:28.000Z,-0.8
2023-01-18T00:07:44.000Z,-0.7
2023-01-18T00:08:59.000Z,-0.7
2023-01-18T00:10:15.000Z,-0.7
2023-01-18T00:11:32.000Z,-0.7
2023-01-18T00:12:48.000Z,-0.7
2023-01-18T00:14:04.000Z,-0.6
2023-01-18T00:15:21.000Z,-0.6
2023-01-18T00:16:37.000Z,-0.5
2023-01-18T00:17:53.000Z,-0.5
2023-01-18T00:19:10.000Z,-0.5
2023-01-18T00:20:26.000Z,-0.5
2023-01-18T00:21:42.000Z,-0.5
2023-01-18T00:22:58.000Z,-0.5
2023-01-18T00:24:15.000Z,-0.5
2023-01-18T00:25:31.000Z,-0.5
2023-01-18T00:26:46.000Z,-0.6
2023-01-18T00:28:03.000Z,-0.5
2023-01-18T00:29:19.000Z,-0.6
2023-01-18T00:30:35.000Z,-0.5
2023-01-18T00:31:51.000Z,-0.5
2023-01-18T00:33:08.000Z,-0.5
2023-01-18T00:34:24.508Z,-0.5
2023-01-18T00:35:40.000Z,-0.5
2023-01-18T00:36:57.000Z,-0.4
2023-01-18T00:38:13.000Z,-0.4
2023-01-18T00:39:29.000Z,-0.4
2023-01-18T00:40:46.000Z,-0.4
2023-01-18T00:42:02.000Z,-0.4
2023-01-18T00:43:18.000Z,-0.4
2023-01-18T00:44:33.895Z,-0.4
2023-01-18T00:45:50.000Z,-0.4
2023-01-18T00:47:06.000Z,-0.4
2023-01-18T00:48:22.000Z,-0.3
2023-01-18T00:49:39.070Z,-0.4
2023-01-18T00:50:55.000Z,-0.3
2023-01-18T00:52:11.000Z,-0.3
2023-01-18T00:53:27.954Z,-0.3
2023-01-18T00:54:44.000Z,-0.3
2023-01-18T00:56:00.000Z,-0.3
2023-01-18T00:57:16.817Z,-0.3
2023-01-18T00:58:33.000Z,-0.3
2023-01-18T00:59:49.424Z,-0.3
2023-01-18T01:01:05.000Z,-0.3
2023-01-18T01:02:21.000Z,-0.4
2023-01-18T01:03:37.000Z,-0.4
2023-01-18T01:04:53.000Z,-0.4
2023-01-18T01:06:09.000Z,-0.4
2023-01-18T01:07:26.000Z,-0.4
2023-01-18T01:08:42.516Z,-0.4
2023-01-18T01:09:58.000Z,-0.4
2023-01-18T01:11:15.000Z,-0.4
2023-01-18T01:12:31.000Z,-0.5
2023-01-18T01:13:47.000Z,-0.5
2023-01-18T01:15:04.000Z,-0.5
2023-01-18T01:16:20.000Z,-0.5
2023-01-18T01:17:36.000Z,-0.5
2023-01-18T01:18:52.000Z,-0.6
2023-01-18T01:20:08.000Z,-0.6
2023-01-18T01:21:24.000Z,-0.6
2023-01-18T01:22:40.000Z,-0.6
2023-01-18T01:23:57.000Z,-0.7
2023-01-18T01:25:13.000Z,-0.7
2023-01-18T01:26:29.635Z,-0.7
2023-01-18T01:27:45.914Z,-0.7
2023-01-18T01:29:02.000Z,-0.7
2023-01-18T01:30:18.000Z,-0.7
2023-01-18T01:31:34.000Z,-0.7
2023-01-18T01:32:51.000Z,-0.7
2023-01-18T01:34:07.000Z,-0.7
2023-01-18T01:35:23.000Z,-0.7
2023-01-18T01:36:40.000Z,-0.8
2023-01-18T01:37:55.000Z,-0.8
2023-01-18T01:39:11.000Z,-0.8
2023-01-18T01:40:27.892Z,-0.8
2023-01-18T01:41:44.000Z,-0.8
2023-01-18T01:43:00.000Z,-0.8
2023-01-18T01:44:16.000Z,-0.8
2023-01-18T01:45:33.000Z,-0.8
2023-01-18T01:46:49.000Z,-0.7
2023-01-18T01:48:05.000Z,-0.8
2023-01-18T01:49:21.959Z,-0.7
2023-01-18T01:50:38.242Z,-0.7
2023-01-18T01:51:54.000Z,-0.7
2023-01-18T01:53:10.000Z,-0.7
2023-01-18T01:54:27.000Z,-0.7
2023-01-18T01:55:42.000Z,-0.7
2023-01-18T01:56:58.000Z,-0.6
2023-01-18T01:58:15.000Z,-0.6
2023-01-18T01:59:31.000Z,-0.6
2023-01-18T02:00:47.000Z,-0.6
2023-01-18T02:02:02.000Z,-0.6
2023-01-18T02:03:19.226Z,-0.6
2023-01-18T02:04:35.000Z,-0.6
2023-01-18T02:05:51.000Z,-0.5
2023-01-18T02:07:08.000Z,-0.5
2023-01-18T02:08:24.000Z,-0.5
2023-01-18T02:09:40.000Z,-0.5
2023-01-18T02:10:57.000Z,-0.5
2023-01-18T02:12:13.000Z,-0.5
2023-01-18T02:13:29.000Z,-0.4
2023-01-18T02:14:45.000Z,-0.4
2023-01-18T02:16:02.000Z,-0.4
2023-01-18T02:17:18.000Z,-0.4
2023-01-18T02:18:33.000Z,-0.3
2023-01-18T02:19:50.000Z,-0.3
2023-01-18T02:21:06.349Z,-0.3
2023-01-18T02:22:22.000Z,-0.2
2023-01-18T02:23:38.000Z,-0.2
2023-01-18T02:24:55.000Z,-0.2
2023-01-18T02:26:11.000Z,-0.2
2023-01-18T02:27:27.000Z,-0.2
2023-01-18T02:28:44.000Z,-0.1
2023-01-18T02:30:00.000Z,-0.2
2023-01-18T02:31:16.000Z,-0.1
2023-01-18T02:32:33.000Z,-0.1
2023-01-18T02:33:49.000Z,-0.1
2023-01-18T02:35:05.000Z,-0.2
2023-01-18T02:36:20.000Z,-0.2
2023-01-18T02:37:37.000Z,-0.1
2023-01-18T02:38:53.000Z,-0.1
2023-01-18T02:40:09.000Z,-0.2
2023-01-18T02:41:26.000Z,-0.1
2023-01-18T02:42:42.000Z,-0.1
2023-01-18T02:43:58.691Z,-0.1
2023-01-18T02:45:14.967Z,-0.1
2023-01-18T02:46:31.263Z,-0.2
2023-01-18T02:47:47.000Z,-0.2
2023-01-18T02:49:03.000Z,-0.2
2023-01-18T02:50:20.000Z,-0.1
2023-01-18T02:51:36.000Z,-0.2
2023-01-18T02:52:52.000Z,-0.2
2023-01-18T02:54:08.044Z,-0.2
2023-01-18T02:55:24.000Z,-0.2
2023-01-18T02:56:40.000Z,-0.2
2023-01-18T02:57:56.000Z,-0.1
2023-01-18T02:59:13.000Z,-0.1
2023-01-18T03:00:29.000Z,0
2023-01-18T03:01:45.000Z,-0.1
2023-01-18T03:03:02.000Z,-0.1
2023-01-18T03:04:18.407Z,-0.1
2023-01-18T03:05:34.000Z,-0.1
2023-01-18T03:06:51.000Z,-0.1
2023-01-18T03:08:07.000Z,-0.1
2023-01-18T03:09:23.000Z,-0.1
2023-01-18T03:10:39.000Z,-0.1
2023-01-18T03:11:55.000Z,-0.1
2023-01-18T03:13:11.000Z,-0.1
2023-01-18T03:14:27.756Z,-0.2
2023-01-18T03:15:44.000Z,-0.2
2023-01-18T03:17:00.000Z,-0.2
2023-01-18T03:18:16.000Z,-0.2
2023-01-18T03:19:32.000Z,-0.2
2023-01-18T03:20:49.000Z,-0.2
2023-01-18T03:22:05.000Z,-0.2
2023-01-18T03:23:21.000Z,-0.2
2023-01-18T03:24:38.000Z,-0.2
2023-01-18T03:25:54.000Z,-0.2
2023-01-18T03:27:10.000Z,-0.2
2023-01-18T03:28:27.000Z,-0.2
2023-01-18T03:29:42.000Z,-0.2
2023-01-18T03:30:58.000Z,-0.2
2023-01-18T03:32:14.000Z,-0.1
2023-01-18T03:33:31.000Z,-0.2
2023-01-18T03:34:47.000Z,-0.1
2023-01-18T03:36:03.000Z,-0.1
2023-01-18T03:37:20.000Z,-0.1
2023-01-18T03:38:36.000Z,-0.1
2023-01-18T03:39:52.000Z,0
2023-01-18T03:41:08.000Z,0
2023-01-18T03:42:25.000Z,0
2023-01-18T03:43:41.000Z,0
2023-01-18T03:44:57.000Z,0
2023-01-18T03:46:14.000Z,0
2023-01-18T03:47:29.000Z,0
2023-01-18T03:48:45.000Z,0
2023-01-18T03:50:02.000Z,0
2023-01-18T03:51:18.000Z,0.1
2023-01-18T03:52:34.000Z,0.1
2023-01-18T03:53:50.000Z,0.1
2023-01-18T03:55:07.220Z,0.1
2023-01-18T03:56:23.000Z,0.2
2023-01-18T03:57:39.000Z,0.2
2023-01-18T03:58:56.000Z,0.2
2023-01-18T04:00:12.000Z,0.2
2023-01-18T04:01:28.000Z,0.2
2023-01-18T04:02:45.000Z,0.2
2023-01-18T04:04:01.000Z,0.2
2023-01-18T04:05:16.000Z,0.2
2023-01-18T04:06:32.000Z,0.2
2023-01-18T04:07:49.188Z,0.3
2023-01-18T04:09:05.000Z,0.2
2023-01-18T04:10:21.000Z,0.2
2023-01-18T04:11:38.000Z,0.2
2023-01-18T04:12:54.335Z,0.2
2023-01-18T04:14:10.000Z,0.2
2023-01-18T04:15:26.000Z,0.3
2023-01-18T04:16:43.000Z,0.3
2023-01-18T04:17:59.000Z,0.3
2023-01-18T04:19:15.000Z,0.3
2023-01-18T04:20:32.000Z,0.3
2023-01-18T04:21:48.000Z,0.3
2023-01-18T04:23:03.000Z,0.3
2023-01-18T04:24:20.000Z,0.3
2023-01-18T04:25:36.000Z,0.3
2023-01-18T04:26:52.000Z,0.3
2023-01-18T04:28:08.923Z,0.3
2023-01-18T04:29:25.000Z,0.3
2023-01-18T04:30:41.000Z,0.3
2023-01-18T04:31:57.000Z,0.3
2023-01-18T04:33:14.000Z,0.3
2023-01-18T04:34:30.000Z,0.3
2023-01-18T04:35:46.000Z,0.3
2023-01-18T04:37:03.000Z,0.4
2023-01-18T04:38:19.275Z,0.3
2023-01-18T04:39:35.000Z,0.3
2023-01-18T04:40:50.000Z,0.3
2023-01-18T04:42:07.000Z,0.2
2023-01-18T04:43:23.000Z,0.2
2023-01-18T04:44:39.000Z,0.2
2023-01-18T04:45:56.000Z,0.2
2023-01-18T04:47:12.000Z,0.1
2023-01-18T04:48:28.000Z,0.2
2023-01-18T04:49:44.000Z,0.2
2023-01-18T04:51:01.000Z,0.1
2023-01-18T04:52:17.000Z,0.1
2023-01-18T04:53:33.000Z,0.1
2023-01-18T04:54:50.000Z,0.1
2023-01-18T04:56:06.000Z,0.1
2023-01-18T04:57:21.000Z,0.1
2023-01-18T04:58:38.000Z,0
2023-01-18T04:59:54.000Z,0.1
2023-01-18T05:01:10.000Z,0.1
2023-01-18T05:02:26.000Z,0
2023-01-18T05:03:43.000Z,0.1
2023-01-18T05:04:59.000Z,0
2023-01-18T05:06:15.000Z,0
2023-01-18T05:07:32.000Z,0
2023-01-18T05:08:48.000Z,0
2023-01-18T05:10:04.649Z,0
2023-01-18T05:11:20.000Z,0
2023-01-18T05:12:37.000Z,0.1
2023-01-18T05:13:52.000Z,0.1
2023-01-18T05:15:08.000Z,0.1
2023-01-18T05:16:25.140Z,0.1
2023-01-18T05:17:41.000Z,0
2023-01-18T05:18:57.000Z,0.1
2023-01-18T05:20:14.000Z,0.1
2023-01-18T05:21:30.000Z,0
2023-01-18T05:22:46.000Z,0
2023-01-18T05:24:02.000Z,0
2023-01-18T05:25:19.000Z,0
2023-01-18T05:26:35.000Z,0
2023-01-18T05:27:51.000Z,-0.1
2023-01-18T05:29:08.000Z,-0.1
2023-01-18T05:30:23.000Z,0
2023-01-18T05:31:39.000Z,-0.1
2023-01-18T05:32:56.000Z,0
2023-01-18T05:34:12.000Z,0
2023-01-18T05:35:28.000Z,0
2023-01-18T05:36:44.000Z,0
2023-01-18T05:38:01.000Z,0
2023-01-18T05:39:17.000Z,0
2023-01-18T05:40:33.000Z,0
2023-01-18T05:41:50.000Z,0
2023-01-18T05:43:06.000Z,0
2023-01-18T05:44:22.000Z,0
2023-01-18T05:45:38.000Z,0
2023-01-18T05:46:54.000Z,0
2023-01-18T05:48:10.000Z,0
2023-01-18T05:49:26.000Z,0
2023-01-18T05:50:43.000Z,0
2023-01-18T05:51:59.397Z,0
2023-01-18T05:53:15.724Z,0
2023-01-18T05:54:32.022Z,0
2023-01-18T05:55:48.000Z,0
2023-01-18T05:57:04.000Z,0
2023-01-18T05:58:20.000Z,0
2023-01-18T05:59:37.000Z,0
2023-01-18T06:00:53.000Z,0
2023-01-18T06:02:09.757Z,0.1
2023-01-18T06:03:25.000Z,0.1
2023-01-18T06:04:41.000Z,0
2023-01-18T06:05:57.000Z,0.1
2023-01-18T06:07:13.950Z,0.1
2023-01-18T06:08:30.000Z,0.1
2023-01-18T06:09:46.000Z,0.1
2023-01-18T06:11:02.000Z,0.1
2023-01-18T06:12:19.000Z,0.2
2023-01-18T06:13:35.000Z,0.2
2023-01-18T06:14:51.000Z,0.1
2023-01-18T06:16:08.000Z,0.1
2023-01-18T06:17:23.000Z,0.2
2023-01-18T06:18:39.000Z,0.1
2023-01-18T06:19:55.000Z,0.1
2023-01-18T06:21:12.000Z,0.1
2023-01-18T06:22:28.000Z,0.1
2023-01-18T06:23:44.000Z,0.1
2023-01-18T06:25:01.000Z,0
2023-01-18T06:26:17.393Z,0.1
2023-01-18T06:27:33.000Z,0.1
2023-01-18T06:28:50.022Z,0
2023-01-18T06:30:06.000Z,0.1
2023-01-18T06:31:22.000Z,0.1
2023-01-18T06:32:38.000Z,0.1
2023-01-18T06:33:54.000Z,0.1
2023-01-18T06:35:10.000Z,0.1
2023-01-18T06:36:26.000Z,0.1
2023-01-18T06:37:42.888Z,0.2
2023-01-18T06:38:59.000Z,0.2
2023-01-18T06:40:15.000Z,0.2
2023-01-18T06:41:31.000Z,0.2
2023-01-18T06:42:47.000Z,0.2
2023-01-18T06:44:04.000Z,0.2
2023-01-18T06:45:20.000Z,0.2
2023-01-18T06:46:36.000Z,0.2
2023-01-18T06:47:52.000Z,0.2
2023-01-18T06:49:09.000Z,0.3
2023-01-18T06:50:24.000Z,0.3
2023-01-18T06:51:40.000Z,0.3
2023-01-18T06:52:56.000Z,0.3
2023-01-18T06:54:13.000Z,0.3
2023-01-18T06:55:29.000Z,0.3
2023-01-18T06:56:45.512Z,0.3
2023-01-18T06:58:01.000Z,0.2
2023-01-18T06:59:18.000Z,0.2
2023-01-18T07:00:34.000Z,0.2
2023-01-18T07:01:50.000Z,0.2
2023-01-18T07:03:06.000Z,0.2
2023-01-18T07:04:22.000Z,0.1
2023-01-18T07:05:39.000Z,0.1
2023-01-18T07:06:55.000Z,0.1
2023-01-18T07:08:10.000Z,0.1
2023-01-18T07:09:26.000Z,0.1
2023-01-18T07:10:43.000Z,0
2023-01-18T07:11:59.000Z,0
2023-01-18T07:13:15.000Z,0
2023-01-18T07:14:31.000Z,0
2023-01-18T07:15:48.000Z,0
2023-01-18T07:17:04.000Z,0
2023-01-18T07:18:20.000Z,0
2023-01-18T07:19:36.000Z,-0.1
2023-01-18T07:20:53.000Z,-0.1
2023-01-18T07:22:09.000Z,-0.1
2023-01-18T07:23:25.000Z,-0.1
2023-01-18T07:24:41.000Z,-0.1
2023-01-18T07:25:57.000Z,-0.1
2023-01-18T07:27:13.000Z,-0.1
2023-01-18T07:28:29.000Z,-0.1
2023-01-18T07:29:45.000Z,-0.1
2023-01-18T07:31:02.032Z,-0.1
2023-01-18T07:32:18.000Z,-0.1
2023-01-18T07:33:34.000Z,-0.1
2023-01-18T07:34:50.000Z,-0.2
2023-01-18T07:36:07.000Z,-0.2
2023-01-18T07:37:23.000Z,-0.2
2023-01-18T07:38:39.000Z,-0.2
2023-01-18T07:39:55.000Z,-0.2
2023-01-18T07:41:11.000Z,-0.2
2023-01-18T07:42:28.000Z,-0.2
2023-01-18T07:43:43.000Z,-0.2
2023-01-18T07:44:59.000Z,-0.2
2023-01-18T07:46:15.000Z,-0.2
2023-01-18T07:47:32.000Z,-0.2
2023-01-18T07:48:48.000Z,-0.2
2023-01-18T07:50:04.000Z,-0.2
2023-01-18T07:51:20.000Z,-0.2
2023-01-18T07:52:37.000Z,-0.1
2023-01-18T07:53:53.000Z,-0.2
2023-01-18T07:55:09.000Z,-0.2
2023-01-18T07:56:25.000Z,-0.1
2023-01-18T07:57:42.000Z,-0.1
2023-01-18T07:58:58.000Z,-0.1
2023-01-18T08:00:14.000Z,-0.1
2023-01-18T08:01:29.837Z,-0.1
2023-01-18T08:02:46.000Z,-0.1
2023-01-18T08:04:02.000Z,-0.1
2023-01-18T08:05:18.000Z,-0.1
2023-01-18T08:06:34.000Z,-0.1
2023-01-18T08:07:51.000Z,-0.1
2023-01-18T08:09:07.000Z,-0.1
2023-01-18T08:10:23.000Z,0
2023-01-18T08:11:39.000Z,0
2023-01-18T08:12:56.000Z,0
2023-01-18T08:14:12.000Z,-0.1
2023-01-18T08:15:28.000Z,-0.1
2023-01-18T08:16:44.000Z,-0.1
2023-01-18T08:18:00.000Z,0
2023-01-18T08:19:16.221Z,0
2023-01-18T08:20:32.000Z,0
2023-01-18T08:21:48.000Z,-0.1
2023-01-18T08:23:04.000Z,0
2023-01-18T08:24:21.182Z,0
2023-01-18T08:25:37.000Z,0
2023-01-18T08:26:53.000Z,0
2023-01-18T08:28:09.000Z,0
2023-01-18T08:29:26.141Z,0
2023-01-18T08:30:42.000Z,0
2023-01-18T08:31:58.000Z,0
2023-01-18T08:33:14.000Z,0
2023-01-18T08:34:31.000Z,0
2023-01-18T08:35:47.000Z,0
2023-01-18T08:37:02.000Z,0
2023-01-18T08:38:18.000Z,0.1
2023-01-18T08:39:35.000Z,0.1
2023-01-18T08:40:51.000Z,0.1
2023-01-18T08:42:07.000Z,0.1
2023-01-18T08:43:23.000Z,0.1
2023-01-18T08:44:40.000Z,0.1
2023-01-18T08:45:56.000Z,0.1
2023-01-18T08:47:12.000Z,0.2
2023-01-18T08:48:28.000Z,0.2
2023-01-18T08:49:45.000Z,0.2
2023-01-18T08:51:01.000Z,0.2
2023-01-18T08:52:17.000Z,0.2
2023-01-18T08:53:33.000Z,0.2
2023-01-18T08:54:49.000Z,0.3
2023-01-18T08:56:05.000Z,0.3
2023-01-18T08:57:21.000Z,0.3
2023-01-18T08:58:37.000Z,0.3
2023-01-18T08:59:53.000Z,0.2
2023-01-18T09:01:10.000Z,0.3
2023-01-18T09:02:26.433Z,0.3
2023-01-18T09:03:42.000Z,0.3
2023-01-18T09:04:58.000Z,0.3
2023-01-18T09:06:15.000Z,0.3
2023-01-18T09:07:31.377Z,0.3
2023-01-18T09:08:47.000Z,0.3
2023-01-18T09:10:03.000Z,0.3
2023-01-18T09:11:20.000Z,0.3
2023-01-18T09:12:35.000Z,0.3
2023-01-18T09:13:51.000Z,0.3
2023-01-18T09:15:07.000Z,0.4
2023-01-18T09:16:24.000Z,0.4
2023-01-18T09:17:40.000Z,0.4
2023-01-18T09:18:56.000Z,0.5
2023-01-18T09:20:12.000Z,0.5
2023-01-18T09:21:29.000Z,0.5
2023-01-18T09:22:45.000Z,0.6
2023-01-18T09:24:01.000Z,0.6
2023-01-18T09:25:17.000Z,0.6
2023-01-18T09:26:34.000Z,0.7
2023-01-18T09:27:50.000Z,0.7
2023-01-18T09:29:06.000Z,0.7
2023-01-18T09:30:21.000Z,0.8
2023-01-18T09:31:38.000Z,0.9
2023-01-18T09:32:54.000Z,0.9
2023-01-18T09:34:10.000Z,0.9
2023-01-18T09:35:26.703Z,0.9
2023-01-18T09:36:42.000Z,0.9
2023-01-18T09:37:59.000Z,0.8
2023-01-18T09:39:15.000Z,0.8
2023-01-18T09:40:31.000Z,0.8
2023-01-18T09:41:47.000Z,0.8
2023-01-18T09:43:04.000Z,0.8
2023-01-18T09:44:20.000Z,0.8
2023-01-18T09:45:36.000Z,0.8
2023-01-18T09:46:51.000Z,0.8
2023-01-18T09:48:08.000Z,0.8
2023-01-18T09:49:24.000Z,0.8
2023-01-18T09:50:40.000Z,0.8
2023-01-18T09:51:56.000Z,0.8
2023-01-18T09:53:13.000Z,0.8
2023-01-18T09:54:29.000Z,0.8
2023-01-18T09:55:45.000Z,0.8
2023-01-18T09:57:01.805Z,0.7
2023-01-18T09:58:18.000Z,0.8
2023-01-18T09:59:34.000Z,0.8
2023-01-18T10:00:50.000Z,0.7
2023-01-18T10:02:06.000Z,0.8
2023-01-18T10:03:22.000Z,0.7
2023-01-18T10:04:38.000Z,0.7
2023-01-18T10:05:54.000Z,0.7
2023-01-18T10:07:10.000Z,0.7
2023-01-18T10:08:27.000Z,0.7
2023-01-18T10:09:43.000Z,0.8
2023-01-18T10:10:59.000Z,0.7
2023-01-18T10:12:15.000Z,0.8
2023-01-18T10:13:31.000Z,0.8
2023-01-18T10:14:48.000Z,0.8
2023-01-18T10:16:04.000Z,0.8
2023-01-18T10:17:20.000Z,0.8
2023-01-18T10:18:36.000Z,0.8
2023-01-18T10:19:52.000Z,0.8
2023-01-18T10:21:08.000Z,0.9
2023-01-18T10:22:24.000Z,0.9
2023-01-18T10:23:40.000Z,0.9
2023-01-18T10:24:57.000Z,1
2023-01-18T10:26:13.375Z,1
2023-01-18T10:27:29.000Z,1
2023-01-18T10:28:45.000Z,1
2023-01-18T10:30:02.054Z,1.1
2023-01-18T10:31:18.000Z,1
2023-01-18T10:32:33.000Z,1.1
2023-01-18T10:33:49.000Z,1
2023-01-18T10:35:06.000Z,1
2023-01-18T10:36:22.000Z,1
2023-01-18T10:37:38.000Z,1
2023-01-18T10:38:54.783Z,1.1
2023-01-18T10:40:11.000Z,1.1
2023-01-18T10:41:27.000Z,1.1
2023-01-18T10:42:43.000Z,1.2
2023-01-18T10:43:59.000Z,1.3
2023-01-18T10:45:16.000Z,1.3
2023-01-18T10:46:32.000Z,1.3
2023-01-18T10:47:48.000Z,1.3
2023-01-18T10:49:03.730Z,1.3
2023-01-18T10:50:19.966Z,1.3
2023-01-18T10:51:36.000Z,1.2
2023-01-18T10:52:52.000Z,1.3
2023-01-18T10:54:08.000Z,1.2
2023-01-18T10:55:24.920Z,1.2
2023-01-18T10:56:41.000Z,1.2
2023-01-18T10:57:57.000Z,1.2
2023-01-18T10:59:13.652Z,1.1
2023-01-18T11:00:29.000Z,1.2
2023-01-18T11:01:46.000Z,1.2
2023-01-18T11:03:02.000Z,1.2
2023-01-18T11:04:18.000Z,1.3
2023-01-18T11:05:33.000Z,1.3
2023-01-18T11:06:50.000Z,1.3
2023-01-18T11:08:06.000Z,1.3
2023-01-18T11:09:22.000Z,1.3
2023-01-18T11:10:38.000Z,1.4
2023-01-18T11:11:55.056Z,1.4
2023-01-18T11:13:11.000Z,1.4
2023-01-18T11:14:27.000Z,1.4
2023-01-18T11:15:43.000Z,1.4
2023-01-18T11:17:00.000Z,1.3
2023-01-18T11:18:16.000Z,1.4
2023-01-18T11:19:32.000Z,1.4
2023-01-18T11:20:48.000Z,1.4
2023-01-18T11:22:03.998Z,1.4
2023-01-18T11:23:20.246Z,1.4
2023-01-18T11:24:36.000Z,1.4
2023-01-18T11:25:52.000Z,1.4
2023-01-18T11:27:08.000Z,1.3
2023-01-18T11:28:25.000Z,1.3
2023-01-18T11:29:41.000Z,1.3
2023-01-18T11:30:57.000Z,1.3
2023-01-18T11:32:13.000Z,1.3
2023-01-18T11:33:30.000Z,1.3
2023-01-18T11:34:46.000Z,1.3
2023-01-18T11:36:02.000Z,1.3
2023-01-18T11:37:18.000Z,1.3
2023-01-18T11:38:34.000Z,1.3
2023-01-18T11:39:50.000Z,1.2
2023-01-18T11:41:06.000Z,1.3
2023-01-18T11:42:22.862Z,1.3
2023-01-18T11:43:39.000Z,1.3
2023-01-18T11:44:55.337Z,1.3
2023-01-18T11:46:11.000Z,1.2
2023-01-18T11:47:27.000Z,1.3
2023-01-18T11:48:44.000Z,1.2
2023-01-18T11:50:00.000Z,1.2
2023-01-18T11:51:16.000Z,1.3
2023-01-18T11:52:32.769Z,1.3
2023-01-18T11:53:49.000Z,1.3
2023-01-18T11:55:04.266Z,1.2
2023-01-18T11:56:20.000Z,1.3
2023-01-18T11:57:36.000Z,1.3
2023-01-18T11:58:53.000Z,1.3
2023-01-18T12:00:09.224Z,1.3
2023-01-18T12:01:25.472Z,1.3
2023-01-18T12:02:41.000Z,1.3
2023-01-18T12:03:57.000Z,1.2
2023-01-18T12:05:14.200Z,1.2
2023-01-18T12:06:30.000Z,1.2
2023-01-18T12:07:46.000Z,1.2
2023-01-18T12:09:02.908Z,1.2
2023-01-18T12:10:19.000Z,1.3
2023-01-18T12:11:34.000Z,1.2
2023-01-18T12:12:50.000Z,1.2
2023-01-18T12:14:06.000Z,1.1
2023-01-18T12:15:23.123Z,1.1
2023-01-18T12:16:39.336Z,1.1
2023-01-18T12:17:55.605Z,1.1
2023-01-18T12:19:11.848Z,1.2
2023-01-18T12:20:28.093Z,1.2
2023-01-18T12:21:44.298Z,1.2
2023-01-18T12:23:00.567Z,1.1
2023-01-18T12:24:16.779Z,1
2023-01-18T12:25:33.046Z,1
2023-01-18T12:26:49.258Z,1
2023-01-18T12:28:04.549Z,1
2023-01-18T12:29:20.000Z,1.1
2023-01-18T12:30:37.000Z,1
2023-01-18T12:31:53.000Z,1.1
2023-01-18T12:33:09.000Z,1
2023-01-18T12:34:25.000Z,1.1
2023-01-18T12:35:42.000Z,1.1
2023-01-18T12:36:58.000Z,1.2
2023-01-18T12:38:14.476Z,1.1
2023-01-18T12:39:30.000Z,1.2
2023-01-18T12:40:46.000Z,1.1
2023-01-18T12:42:03.000Z,1.2
2023-01-18T12:43:19.440Z,1.1
2023-01-18T12:44:34.000Z,1.1
2023-01-18T12:45:50.000Z,1.1
2023-01-18T12:47:07.000Z,1.1
2023-01-18T12:48:23.000Z,1
2023-01-18T12:49:39.608Z,0.9
2023-01-18T12:50:55.000Z,1
2023-01-18T12:52:12.000Z,0.9
2023-01-18T12:53:28.000Z,0.9
2023-01-18T12:54:44.000Z,0.9
2023-01-18T12:56:00.000Z,0.9
2023-01-18T12:57:17.000Z,0.9
2023-01-18T12:58:33.321Z,0.9
2023-01-18T12:59:49.529Z,0.9
2023-01-18T13:01:04.816Z,0.9
2023-01-18T13:02:21.000Z,0.9
2023-01-18T13:03:37.000Z,0.9
2023-01-18T13:04:53.000Z,0.9
2023-01-18T13:06:09.000Z,0.9
2023-01-18T13:07:26.000Z,0.9
2023-01-18T13:08:42.264Z,0.8
2023-01-18T13:09:58.000Z,0.8
2023-01-18T13:11:14.000Z,0.8
2023-01-18T13:12:31.000Z,0.8
2023-01-18T13:13:47.000Z,0.9
2023-01-18T13:15:03.000Z,0.9
2023-01-18T13:16:19.000Z,0.9
2023-01-18T13:17:34.000Z,0.9
2023-01-18T13:18:51.000Z,0.9
2023-01-18T13:20:07.446Z,0.8
2023-01-18T13:21:23.000Z,0.8
2023-01-18T13:22:39.880Z,0.8
2023-01-18T13:23:56.000Z,0.8
2023-01-18T13:25:12.000Z,0.9
2023-01-18T13:26:28.000Z,0.9
2023-01-18T13:27:44.000Z,0.9
2023-01-18T13:29:01.115Z,0.9
2023-01-18T13:30:17.369Z,0.9
2023-01-18T13:31:33.594Z,0.9
2023-01-18T13:32:49.000Z,0.9
2023-01-18T13:34:05.000Z,1
2023-01-18T13:35:21.000Z,1
2023-01-18T13:36:37.579Z,1
2023-01-18T13:37:53.000Z,1
2023-01-18T13:39:10.000Z,1
2023-01-18T13:40:26.000Z,1
2023-01-18T13:41:42.000Z,0.9
2023-01-18T13:42:58.000Z,1
2023-01-18T13:44:15.011Z,0.9
2023-01-18T13:45:31.000Z,0.9
2023-01-18T13:46:47.457Z,0.9
2023-01-18T13:48:03.722Z,0.9
2023-01-18T13:49:20.000Z,0.9
2023-01-18T13:50:35.000Z,0.9
2023-01-18T13:51:51.000Z,0.9
2023-01-18T13:53:07.000Z,0.9
2023-01-18T13:54:23.928Z,0.9
2023-01-18T13:55:40.000Z,0.9
2023-01-18T13:56:56.000Z,0.9
2023-01-18T13:58:12.000Z,0.9
2023-01-18T13:59:28.874Z,1
2023-01-18T14:00:45.000Z,1
2023-01-18T14:02:01.000Z,1
2023-01-18T14:03:17.000Z,1.1
2023-01-18T14:04:33.000Z,1.1
2023-01-18T14:05:50.000Z,1.1
2023-01-18T14:07:05.000Z,1.1
2023-01-18T14:08:21.000Z,1.1
2023-01-18T14:09:37.837Z,1.1
2023-01-18T14:10:54.067Z,1.1
2023-01-18T14:12:10.000Z,1.1
2023-01-18T14:13:26.000Z,1.1
2023-01-18T14:14:42.796Z,1.1
2023-01-18T14:15:59.000Z,1.1
2023-01-18T14:17:15.000Z,1.1
2023-01-18T14:18:31.000Z,1.2
2023-01-18T14:19:47.736Z,1.2
2023-01-18T14:21:03.990Z,1.1
2023-01-18T14:22:20.245Z,1.1
2023-01-18T14:23:36.000Z,1.1
2023-01-18T14:24:51.000Z,1.2
2023-01-18T14:26:08.000Z,1.2
2023-01-18T14:27:24.000Z,1.2
2023-01-18T14:28:40.000Z,1.2
2023-01-18T14:29:56.688Z,1.2
2023-01-18T14:31:12.000Z,1.2
2023-01-18T14:32:29.000Z,1.2
2023-01-18T14:33:45.000Z,1.2
2023-01-18T14:35:01.000Z,1.2
2023-01-18T14:36:17.000Z,1.1
2023-01-18T14:37:34.000Z,1.1
2023-01-18T14:38:50.000Z,1.1
2023-01-18T14:40:06.611Z,1.1
2023-01-18T14:41:22.849Z,1.1
2023-01-18T14:42:38.107Z,1.1
2023-01-18T14:43:54.000Z,1.1
2023-01-18T14:45:10.000Z,1.1
2023-01-18T14:46:26.000Z,1.1
2023-01-18T14:47:42.000Z,1.1
2023-01-18T14:48:58.000Z,1.1
2023-01-18T14:50:14.000Z,1
2023-01-18T14:51:30.000Z,1
2023-01-18T14:52:47.046Z,1
2023-01-18T14:54:03.280Z,1
2023-01-18T14:55:19.530Z,1
2023-01-18T14:56:35.000Z,0.9
2023-01-18T14:57:52.000Z,0.9
2023-01-18T14:59:08.000Z,0.9
2023-01-18T15:00:24.000Z,0.9
2023-01-18T15:01:40.000Z,0.9
2023-01-18T15:02:56.943Z,0.9
2023-01-18T15:04:13.000Z,0.9
2023-01-18T15:05:28.456Z,0.8
2023-01-18T15:06:44.000Z,0.8
2023-01-18T15:08:00.000Z,0.8
2023-01-18T15:09:17.000Z,0.8
2023-01-18T15:10:33.000Z,0.8
2023-01-18T15:11:49.000Z,0.9
2023-01-18T15:13:05.000Z,0.8
2023-01-18T15:14:22.137Z,0.9
2023-01-18T15:15:38.386Z,0.8
2023-01-18T15:16:54.000Z,0.8
2023-01-18T15:18:10.000Z,0.8
2023-01-18T15:19:27.000Z,0.8
2023-01-18T15:20:43.355Z,0.8
2023-01-18T15:21:58.000Z,0.7
2023-01-18T15:23:14.000Z,0.7
2023-01-18T15:24:31.075Z,0.7
2023-01-18T15:25:47.301Z,0.7
2023-01-18T15:27:03.557Z,0.7
2023-01-18T15:28:19.000Z,0.7
2023-01-18T15:29:36.000Z,0.7
2023-01-18T15:30:52.000Z,0.7
2023-01-18T15:32:08.000Z,0.7
2023-01-18T15:33:24.000Z,0.7
2023-01-18T15:34:41.000Z,0.7
2023-01-18T15:35:57.247Z,0.7
2023-01-18T15:37:13.457Z,0.7
2023-01-18T15:38:28.716Z,0.7
2023-01-18T15:39:45.000Z,0.7
2023-01-18T15:41:01.000Z,0.7
2023-01-18T15:42:17.000Z,0.7
2023-01-18T15:43:33.000Z,0.7
2023-01-18T15:44:49.000Z,0.7
2023-01-18T15:46:06.170Z,0.6
2023-01-18T15:47:22.421Z,0.6
2023-01-18T15:48:38.652Z,0.6
2023-01-18T15:49:54.000Z,0.6
2023-01-18T15:51:11.000Z,0.6
2023-01-18T15:52:27.000Z,0.6
2023-01-18T15:53:43.621Z,0.5
2023-01-18T15:54:58.000Z,0.6
2023-01-18T15:56:15.000Z,0.5
2023-01-18T15:57:31.333Z,0.5
2023-01-18T15:58:47.585Z,0.6
2023-01-18T16:00:03.809Z,0.6
2023-01-18T16:01:20.000Z,0.6
2023-01-18T16:02:36.288Z,0.6
2023-01-18T16:03:52.000Z,0.6
2023-01-18T16:05:08.000Z,0.6
2023-01-18T16:06:25.000Z,0.6
2023-01-18T16:07:41.000Z,0.6
2023-01-18T16:08:57.509Z,0.6
2023-01-18T16:10:13.731Z,0.6
2023-01-18T16:11:29.004Z,0.6
2023-01-18T16:12:45.000Z,0.6
2023-01-18T16:14:01.496Z,0.6
2023-01-18T16:15:17.000Z,0.5
2023-01-18T16:16:34.000Z,0.5
2023-01-18T16:17:50.000Z,0.5
2023-01-18T16:19:06.673Z,0.5
2023-01-18T16:20:22.956Z,0.5
2023-01-18T16:21:39.256Z,0.5
2023-01-18T16:22:55.000Z,0.5
2023-01-18T16:24:11.856Z,0.4
2023-01-18T16:25:28.000Z,0.4
2023-01-18T16:26:44.000Z,0.4
2023-01-18T16:27:59.000Z,0.4
2023-01-18T16:29:16.000Z,0.4
2023-01-18T16:30:32.329Z,0.4
2023-01-18T16:31:48.620Z,0.4
2023-01-18T16:33:04.000Z,0.3
2023-01-18T16:34:21.222Z,0.4
2023-01-18T16:35:37.000Z,0.3
2023-01-18T16:36:53.000Z,0.3
2023-01-18T16:38:10.000Z,0.3
2023-01-18T16:39:26.000Z,0.3
2023-01-18T16:40:42.695Z,0.2
2023-01-18T16:41:58.974Z,0.2
2023-01-18T16:43:15.000Z,0.2
2023-01-18T16:44:31.000Z,0.2
2023-01-18T16:45:46.000Z,0.1
2023-01-18T16:47:03.000Z,0.1
2023-01-18T16:48:19.000Z,0.1
2023-01-18T16:49:35.000Z,0.1
2023-01-18T16:50:52.000Z,0.1
2023-01-18T16:52:08.347Z,0
2023-01-18T16:53:24.638Z,0
2023-01-18T16:54:40.000Z,0.1
2023-01-18T16:55:57.000Z,0.1
2023-01-18T16:57:13.000Z,0.1
2023-01-18T16:58:29.000Z,0.1
2023-01-18T16:59:46.000Z,0.1
2023-01-18T17:01:02.000Z,0.1
2023-01-18T17:02:18.709Z,0.1
2023-01-18T17:03:34.024Z,0.1
2023-01-18T17:04:50.310Z,0
2023-01-18T17:06:06.000Z,0
2023-01-18T17:07:22.000Z,0
2023-01-18T17:08:39.000Z,0.1
2023-01-18T17:09:55.000Z,0
2023-01-18T17:11:11.000Z,0
2023-01-18T17:12:28.000Z,0
2023-01-18T17:13:44.374Z,0
2023-01-18T17:15:00.669Z,0
2023-01-18T17:16:16.955Z,0
2023-01-18T17:17:33.000Z,0
2023-01-18T17:18:49.000Z,-0.1
2023-01-18T17:20:05.000Z,-0.1
2023-01-18T17:21:22.000Z,-0.1
2023-01-18T17:22:38.000Z,-0.1
2023-01-18T17:23:54.822Z,-0.1
2023-01-18T17:25:11.140Z,-0.1
2023-01-18T17:26:27.000Z,-0.1
2023-01-18T17:27:43.000Z,-0.1
2023-01-18T17:29:00.000Z,-0.1